createdAt,value
2022-11-22T00:02:11.570Z,19.33
2022-11-22T00:04:38.578Z,20.25
2022-11-22T00:07:05.896Z,17.67
2022-11-22T00:09:34.251Z,17.65
2022-11-22T00:12:01.400Z,17.83
2022-11-22T00:14:29.353Z,17.48
2022-11-22T00:16:56.617Z,18.33
2022-11-22T00:19:24.383Z,16.83
2022-11-22T00:21:51.469Z,17.40
2022-11-22T00:24:18.642Z,17.45
2022-11-22T00:26:45.873Z,16.70
2022-11-22T00:29:14.976Z,17.33
2022-11-22T00:31:42.136Z,16.60
2022-11-22T00:34:09.389Z,16.45
2022-11-22T00:36:36.538Z,17.50
2022-11-22T00:39:03.902Z,15.85
2022-11-22T00:41:31.010Z,15.32
2022-11-22T00:43:58.289Z,15.52
2022-11-22T00:46:25.863Z,15.48
2022-11-22T00:48:52.781Z,15.30
2022-11-22T00:51:19.842Z,16.23
2022-11-22T00:53:46.983Z,14.75
2022-11-22T00:56:14.024Z,14.75
2022-11-22T00:58:41.034Z,15.65
2022-11-22T01:01:08.231Z,15.05
2022-11-22T01:03:38.462Z,15.02
2022-11-22T01:06:05.720Z,16.02
2022-11-22T01:08:32.972Z,14.88
2022-11-22T01:11:02.180Z,14.77
2022-11-22T01:13:30.147Z,14.07
2022-11-22T01:16:07.412Z,14.68
2022-11-22T01:18:36.876Z,14.60
2022-11-22T01:21:04.883Z,13.77
2022-11-22T01:23:33.213Z,15.25
2022-11-22T01:26:00.399Z,14.70
2022-11-22T01:28:28.133Z,14.85
2022-11-22T01:30:58.832Z,14.20
2022-11-22T01:33:26.919Z,15.75
2022-11-22T01:35:58.484Z,13.35
2022-11-22T01:38:28.581Z,15.23
2022-11-22T01:40:55.858Z,15.20
2022-11-22T01:43:27.963Z,13.50
2022-11-22T01:46:01.892Z,13.10
2022-11-22T01:48:31.724Z,14.85
2022-11-22T01:51:21.878Z,15.70
2022-11-22T01:53:50.054Z,15.63
2022-11-22T01:56:21.482Z,13.77
2022-11-22T01:58:53.733Z,14.75
2022-11-22T02:01:21.340Z,14.27
2022-11-22T02:03:51.212Z,14.73
2022-11-22T02:06:20.391Z,14.75
2022-11-22T02:09:00.316Z,13.02
2022-11-22T02:11:34.353Z,14.45
2022-11-22T02:14:05.439Z,12.75
2022-11-22T02:16:34.805Z,14.23
2022-11-22T02:19:02.865Z,13.80
2022-11-22T02:21:30.610Z,14.23
2022-11-22T02:24:17.069Z,14.10
2022-11-22T02:26:44.253Z,13.18
2022-11-22T02:29:13.670Z,13.32
2022-11-22T02:31:44.261Z,13.25
2022-11-22T02:34:14.755Z,12.95
2022-11-22T02:36:46.329Z,13.80
2022-11-22T02:39:16.321Z,14.10
2022-11-22T02:41:44.494Z,15.23
2022-11-22T02:44:12.511Z,15.70
2022-11-22T02:46:51.257Z,15.57
2022-11-22T02:49:20.309Z,13.80
2022-11-22T02:51:47.236Z,13.93
2022-11-22T02:54:17.308Z,17.30
2022-11-22T02:56:44.247Z,14.63
2022-11-22T02:59:11.280Z,16.48
2022-11-22T03:01:38.437Z,14.15
2022-11-22T03:04:05.669Z,15.73
2022-11-22T03:06:32.586Z,14.20
2022-11-22T03:08:59.460Z,13.48
2022-11-22T03:11:26.606Z,14.30
2022-11-22T03:13:53.530Z,14.73
2022-11-22T03:16:20.614Z,15.60
2022-11-22T03:18:47.448Z,14.63
2022-11-22T03:21:14.350Z,14.68
2022-11-22T03:23:41.289Z,14.20
2022-11-22T03:26:10.167Z,14.43
2022-11-22T03:28:37.128Z,14.15
2022-11-22T03:31:08.176Z,14.02
2022-11-22T03:33:36.013Z,13.20
2022-11-22T03:36:03.577Z,13.73
2022-11-22T03:38:30.718Z,15.67
2022-11-22T03:40:57.826Z,14.68
2022-11-22T03:43:24.717Z,14.35
2022-11-22T03:45:51.844Z,14.67
2022-11-22T03:48:19.040Z,15.75
2022-11-22T03:50:46.226Z,15.02
2022-11-22T03:53:13.534Z,13.82
2022-11-22T03:55:40.525Z,14.00
2022-11-22T03:58:07.700Z,16.73
2022-11-22T04:00:35.047Z,13.40
2022-11-22T04:03:01.966Z,12.43
2022-11-22T04:05:28.819Z,13.07
2022-11-22T04:07:58.622Z,14.85
2022-11-22T04:10:26.045Z,14.13
2022-11-22T04:12:57.536Z,13.27
2022-11-22T04:15:25.271Z,14.93
2022-11-22T04:17:52.433Z,13.13
2022-11-22T04:20:40.874Z,13.30
2022-11-22T04:23:16.096Z,15.07
2022-11-22T04:25:45.717Z,12.73
2022-11-22T04:28:14.892Z,12.70
2022-11-22T04:31:02.075Z,12.60
2022-11-22T04:33:29.400Z,13.90
2022-11-22T04:35:56.514Z,13.02
2022-11-22T04:38:23.878Z,14.95
2022-11-22T04:40:50.703Z,15.75
2022-11-22T04:43:45.399Z,17.27
2022-11-22T04:46:13.797Z,14.85
2022-11-22T04:48:40.934Z,15.40
2022-11-22T04:51:26.936Z,13.13
2022-11-22T04:53:53.849Z,13.35
2022-11-22T04:56:20.917Z,14.65
2022-11-22T04:58:51.573Z,13.82
2022-11-22T05:01:18.647Z,13.98
2022-11-22T05:03:45.740Z,15.98
2022-11-22T05:06:14.061Z,15.32
2022-11-22T05:08:41.331Z,15.98
2022-11-22T05:11:08.199Z,15.20
2022-11-22T05:13:41.091Z,14.80
2022-11-22T05:16:11.048Z,16.63
2022-11-22T05:18:38.563Z,15.65
2022-11-22T05:21:14.412Z,13.57
2022-11-22T05:23:56.800Z,14.02
2022-11-22T05:26:35.266Z,15.65
2022-11-22T05:29:10.394Z,13.02
2022-11-22T05:31:39.314Z,15.00
2022-11-22T05:34:06.488Z,15.00
2022-11-22T05:36:34.713Z,16.55
2022-11-22T05:39:03.818Z,14.40
2022-11-22T05:41:31.272Z,13.18
2022-11-22T05:43:58.972Z,16.13
2022-11-22T05:46:28.763Z,15.65
2022-11-22T05:48:57.218Z,14.20
2022-11-22T05:51:33.596Z,15.93
2022-11-22T05:54:01.180Z,14.85
2022-11-22T05:56:28.010Z,19.10
2022-11-22T05:58:55.386Z,16.25
2022-11-22T06:01:24.058Z,17.33
2022-11-22T06:03:51.918Z,16.75
2022-11-22T06:06:19.891Z,21.67
2022-11-22T06:08:48.599Z,17.90
2022-11-22T06:11:17.543Z,17.53
2022-11-22T06:13:45.843Z,15.68
2022-11-22T06:16:13.624Z,15.68
2022-11-22T06:18:40.618Z,15.15
2022-11-22T06:21:13.628Z,15.23
2022-11-22T06:23:41.135Z,17.08
2022-11-22T06:26:11.032Z,19.58
2022-11-22T06:28:39.502Z,16.33
2022-11-22T06:31:18.702Z,14.98
2022-11-22T06:33:46.424Z,19.35
2022-11-22T06:36:16.171Z,16.50
2022-11-22T06:38:44.492Z,18.17
2022-11-22T06:41:14.498Z,19.02
2022-11-22T06:43:48.240Z,19.17
2022-11-22T06:46:20.277Z,17.15
2022-11-22T06:48:47.883Z,19.92
2022-11-22T06:51:23.162Z,17.75
2022-11-22T06:53:51.334Z,19.93
2022-11-22T06:56:21.032Z,22.00
2022-11-22T06:58:49.516Z,19.35
2022-11-22T07:01:28.031Z,21.23
2022-11-22T07:03:58.642Z,21.23
2022-11-22T07:06:28.324Z,21.85
2022-11-22T07:08:55.736Z,25.30
2022-11-22T07:11:28.079Z,28.25
2022-11-22T07:13:59.125Z,24.85
2022-11-22T07:16:30.895Z,24.25
2022-11-22T07:19:00.585Z,25.77
2022-11-22T07:21:28.007Z,24.05
2022-11-22T07:23:55.849Z,25.05
2022-11-22T07:26:24.482Z,24.92
2022-11-22T07:28:51.628Z,23.23
2022-11-22T07:31:19.226Z,22.58
2022-11-22T07:33:46.481Z,26.85
2022-11-22T07:36:14.779Z,24.70
2022-11-22T07:38:42.105Z,28.83
2022-11-22T07:43:53.184Z,26.73
2022-11-22T07:46:31.941Z,25.85
2022-11-22T07:49:00.872Z,29.05
2022-11-22T07:51:28.140Z,25.88
2022-11-22T07:53:56.127Z,25.00
2022-11-22T07:56:23.351Z,29.20
2022-11-22T07:58:50.244Z,26.43
2022-11-22T08:01:19.002Z,22.50
2022-11-22T08:03:49.369Z,24.70
2022-11-22T08:06:16.728Z,26.67
2022-11-22T08:08:44.382Z,26.63
2022-11-22T08:11:11.966Z,25.17
2022-11-22T08:13:39.420Z,24.08
2022-11-22T08:16:12.633Z,22.83
2022-11-22T08:18:41.471Z,29.23
2022-11-22T08:21:11.332Z,28.25
2022-11-22T08:23:39.404Z,25.47
2022-11-22T08:26:08.719Z,26.98
2022-11-22T08:28:36.321Z,24.30
2022-11-22T08:31:15.993Z,21.25
2022-11-22T08:33:42.912Z,24.88
2022-11-22T08:36:09.954Z,25.23
2022-11-22T08:38:36.913Z,24.27
2022-11-22T09:05:15.739Z,19.48
2022-11-22T09:13:22.193Z,20.00
2022-11-22T09:15:51.060Z,19.38
2022-11-22T09:23:48.314Z,15.60
2022-11-22T09:26:24.902Z,13.98
2022-11-22T09:28:53.966Z,17.45
2022-11-22T09:31:23.432Z,14.02
2022-11-22T09:33:51.819Z,16.38
2022-11-22T09:36:24.342Z,16.40
2022-11-22T09:38:54.249Z,14.38
2022-11-22T09:41:47.175Z,12.07
2022-11-22T09:47:38.332Z,16.33
2022-11-22T09:54:09.274Z,14.50
2022-11-22T09:56:40.383Z,13.80
2022-11-22T09:59:21.781Z,13.97
2022-11-22T10:02:18.117Z,10.13
2022-11-22T10:05:04.163Z,15.13
2022-11-22T10:08:06.556Z,10.90
2022-11-22T10:10:48.472Z,8.53
2022-11-22T10:13:25.104Z,12.90
2022-11-22T10:16:29.121Z,12.47
2022-11-22T10:19:47.380Z,11.37
2022-11-22T10:22:17.107Z,7.83
2022-11-22T10:24:50.484Z,11.53
2022-11-22T10:27:18.998Z,11.13
2022-11-22T10:30:00.609Z,8.63
2022-11-22T10:32:45.908Z,11.97
2022-11-22T10:35:42.070Z,10.63
2022-11-22T10:38:42.865Z,8.50
2022-11-22T10:41:48.498Z,11.43
2022-11-22T10:44:32.724Z,10.63
2022-11-22T10:47:29.129Z,7.53
2022-11-22T10:52:51.904Z,13.70
2022-11-22T10:55:34.162Z,11.07
2022-11-22T10:58:39.646Z,9.33
2022-11-22T11:01:28.671Z,10.77
2022-11-22T11:04:01.835Z,9.00
2022-11-22T11:07:17.193Z,4.63
2022-11-22T11:13:02.964Z,10.70
2022-11-22T11:19:23.882Z,7.13
2022-11-22T11:22:11.061Z,7.30
2022-11-22T11:24:42.513Z,7.87
2022-11-22T11:27:14.779Z,9.23
2022-11-22T11:29:44.437Z,10.53
2022-11-22T11:35:11.112Z,6.27
2022-11-22T11:37:47.589Z,4.83
2022-11-22T11:40:31.520Z,7.40
2022-11-22T11:43:27.771Z,8.37
2022-11-22T12:38:07.258Z,6.23
2022-11-22T12:40:46.227Z,5.03
2022-11-22T12:43:46.061Z,4.50
2022-11-22T12:46:26.413Z,5.47
2022-11-22T12:49:02.818Z,4.80
2022-11-22T12:51:39.332Z,4.23
2022-11-22T12:54:15.131Z,6.33
2022-11-22T12:56:51.583Z,9.50
2022-11-22T12:59:48.799Z,8.47
2022-11-22T13:02:57.421Z,6.60
2022-11-22T13:09:01.927Z,5.60
2022-11-22T13:12:15.927Z,8.23
2022-11-22T13:14:49.466Z,5.73
2022-11-22T13:17:23.984Z,7.50
2022-11-22T13:24:01.846Z,9.93
2022-11-22T13:27:00.469Z,5.63
2022-11-22T13:29:39.304Z,4.90
2022-11-22T13:32:13.245Z,7.40
2022-11-22T13:35:04.202Z,8.90
2022-11-22T13:40:33.722Z,5.83
2022-11-22T13:43:21.875Z,5.10
2022-11-22T13:46:00.978Z,3.47
2022-11-22T13:48:40.423Z,6.97
2022-11-22T13:51:12.887Z,11.17
2022-11-22T13:53:50.095Z,7.37
2022-11-22T13:56:17.314Z,12.67
2022-11-22T13:59:13.702Z,8.17
2022-11-22T14:01:41.222Z,5.30
2022-11-22T14:04:22.235Z,7.77
2022-11-22T14:07:26.609Z,9.40
2022-11-22T14:10:00.516Z,5.83
2022-11-22T14:13:10.798Z,5.43
2022-11-22T14:15:57.058Z,7.23
2022-11-22T14:18:52.807Z,7.03
2022-11-22T14:21:47.973Z,5.77
2022-11-22T14:24:27.856Z,6.40
2022-11-22T14:27:27.889Z,7.03
2022-11-22T14:30:07.745Z,4.90
2022-11-22T14:33:01.720Z,4.83
2022-11-22T14:35:40.444Z,4.23
2022-11-22T14:38:28.385Z,5.47
2022-11-22T14:41:28.364Z,5.67
2022-11-22T14:44:22.051Z,7.43
2022-11-22T14:47:04.524Z,6.07
2022-11-22T14:49:48.916Z,6.03
2022-11-22T14:52:29.267Z,5.10
2022-11-22T14:55:10.034Z,4.57
2022-11-22T14:57:38.698Z,6.20
2022-11-22T15:00:21.244Z,4.00
2022-11-22T15:03:36.759Z,3.40
2022-11-22T15:09:15.083Z,4.80
2022-11-22T15:09:48.724Z,2.87
2022-11-22T15:12:54.447Z,4.80
2022-11-22T15:58:13.773Z,7.50
2022-11-22T16:00:44.827Z,5.37
2022-11-22T16:03:26.524Z,4.23
2022-11-22T16:06:09.193Z,4.80
2022-11-22T16:08:48.622Z,3.10
2022-11-22T16:11:27.903Z,10.50
2022-11-22T16:13:55.344Z,5.37
2022-11-22T16:16:33.644Z,9.17
2022-11-22T16:19:23.879Z,6.23
2022-11-22T16:21:57.649Z,8.33
2022-11-22T16:24:32.504Z,7.63
2022-11-22T16:27:12.050Z,5.60
2022-11-22T16:29:57.580Z,6.17
2022-11-22T16:32:24.959Z,4.40
2022-11-22T16:35:27.421Z,4.30
2022-11-22T16:37:49.409Z,5.70
2022-11-22T16:43:09.569Z,4.60
2022-11-22T16:49:22.642Z,5.03
2022-11-22T16:52:13.589Z,4.30
2022-11-22T17:07:07.916Z,4.17
2022-11-22T17:12:34.041Z,4.37
2022-11-22T17:15:05.877Z,5.43
2022-11-22T17:17:34.556Z,2.83
2022-11-22T17:20:03.771Z,3.20
2022-11-22T17:22:33.904Z,4.10
2022-11-22T17:25:09.284Z,8.07
